Weather History for KRCE - October, 2013

Change the Weather History Date:

Friday, October 25, 2013

  Actual Average (KOKC) Record (KOKC)
Temperature  
Mean Temperature 50 °F 60 °F  
Max Temperature 62 °F 71 °F 92 °F (2014)
Min Temperature 37 °F 49 °F 29 °F (1957)
Degree Days  
Heating Degree Days 16 7  
Month to date heating degree days 99  
Since 1 July heating degree days 118  
Cooling Degree Days 0 1  
Month to date cooling degree days 61  
Year to date cooling degree days 2086  
Moisture  
Dew Point 36 °F    
Average Humidity 63    
Maximum Humidity 81    
Minimum Humidity 45    
Precipitation  
Precipitation 0.00 in 0.12 in 1.65 in (1899)
Month to date precipitation 3.05  
Year to date precipitation 32.00  
Snow  
Snow 0.00 in 0.00 in T in (1957)
Month to date snowfall 0.0  
Since 1 July snowfall 0.0  
Snow Depth -    
Sea Level Pressure  
Sea Level Pressure 30.35 in    
Wind  
Wind Speed 9 mph (SE)    
Max Wind Speed 15 mph    
Max Gust Speed 20 mph    
Visibility 10 miles    
Events      
T = Trace of Precipitation, MM = Missing Value Source: NWS Daily Summary

Daily Weather History Graph

Daily Weather History Graph

Search for Another Location

Airport or City:

Trip Planner

Search our weather history database for the weather conditions in past years. The results will help you decide how hot, cold, wet, or windy it might be!

Date:

Astronomy

Oct. 25, 2013 Rise Set
Actual Time 7:46 AM CDT 6:43 PM CDT
Civil Twilight 7:20 AM CDT 7:09 PM CDT
Nautical Twilight 6:50 AM CDT 7:39 PM CDT
Astronomical Twilight 6:21 AM CDT 8:08 PM CDT
Moon No Moon Rise 1:24 PM CDT (10/25)
Length of Visible Light 11h 48m
Length of Day
10h 56m
Waning Gibbous, 62% of the Moon is Illuminated
Oct 25
Waning Gibbous
Oct 26
Last Quarter
Nov 3
New
Nov 9
First Quarter
Nov 17
Full

Hourly Weather History & Observations

Time (CDT) Temp. Windchill Dew Point Humidity Pressure Visibility Wind Dir Wind Speed Gust Speed Precip Events Conditions
12:15 AM 41.0 °F 35.8 °F 33.8 °F 76% 30.40 in 10.0 mi ENE 8.1 mph - N/A   Clear
12:35 AM 41.0 °F 36.4 °F 33.8 °F 76% 30.40 in 10.0 mi ENE 6.9 mph - N/A   Clear
12:55 AM 41.0 °F 36.4 °F 33.8 °F 76% 30.40 in 10.0 mi ENE 6.9 mph - N/A   Clear
1:15 AM 39.2 °F 35.0 °F 33.8 °F 81% 30.41 in 10.0 mi NE 5.8 mph - N/A   Clear
1:35 AM 39.2 °F 34.2 °F 33.8 °F 81% 30.41 in 10.0 mi NE 6.9 mph - N/A   Clear
1:55 AM 39.2 °F 35.0 °F 32.0 °F 75% 30.41 in 10.0 mi NE 5.8 mph - N/A   Clear
2:15 AM 39.2 °F 35.9 °F 32.0 °F 75% 30.42 in 10.0 mi ENE 4.6 mph - N/A   Clear
2:35 AM 39.2 °F 35.9 °F 32.0 °F 75% 30.42 in 10.0 mi ENE 4.6 mph - N/A   Clear
2:55 AM 39.2 °F 35.9 °F 32.0 °F 75% 30.42 in 10.0 mi ENE 4.6 mph - N/A   Clear
3:15 AM 37.4 °F 32.8 °F 32.0 °F 81% 30.42 in 10.0 mi NE 5.8 mph - N/A   Clear
3:35 AM 39.2 °F 34.2 °F 32.0 °F 75% 30.42 in 10.0 mi ENE 6.9 mph - N/A   Partly Cloudy
3:55 AM 39.2 °F 33.0 °F 32.0 °F 75% 30.41 in 10.0 mi ENE 9.2 mph - N/A   Partly Cloudy
4:15 AM 39.2 °F 33.0 °F 32.0 °F 75% 30.41 in 10.0 mi ENE 9.2 mph - N/A   Partly Cloudy
4:35 AM 39.2 °F 34.2 °F 30.2 °F 70% 30.42 in 10.0 mi East 6.9 mph - N/A   Partly Cloudy
4:55 AM 39.2 °F 34.2 °F 30.2 °F 70% 30.42 in 10.0 mi ENE 6.9 mph - N/A   Partly Cloudy
5:15 AM 39.2 °F 34.2 °F 30.2 °F 70% 30.43 in 10.0 mi ENE 6.9 mph - N/A   Mostly Cloudy
5:35 AM 39.2 °F 33.0 °F 30.2 °F 70% 30.43 in 10.0 mi East 9.2 mph - N/A   Overcast
5:55 AM 39.2 °F 33.6 °F 30.2 °F 70% 30.44 in 10.0 mi East 8.1 mph - N/A   Overcast
6:15 AM 41.0 °F 35.8 °F 32.0 °F 70% 30.44 in 10.0 mi East 8.1 mph - N/A   Overcast
6:35 AM 41.0 °F 35.2 °F 32.0 °F 70% 30.44 in 10.0 mi ESE 9.2 mph - N/A   Overcast
6:55 AM 41.0 °F 34.7 °F 30.2 °F 65% 30.44 in 10.0 mi East 10.4 mph - N/A   Overcast
7:15 AM 41.0 °F 36.4 °F 30.2 °F 65% 30.44 in 10.0 mi East 6.9 mph - N/A   Overcast
7:35 AM 39.2 °F 33.6 °F 30.2 °F 70% 30.43 in 10.0 mi East 8.1 mph - N/A   Mostly Cloudy
7:55 AM 39.2 °F 35.0 °F 30.2 °F 70% 30.44 in 10.0 mi East 5.8 mph - N/A   Partly Cloudy
8:15 AM 41.0 °F 36.4 °F 32.0 °F 70% 30.43 in 10.0 mi East 6.9 mph - N/A   Mostly Cloudy
8:35 AM 42.8 °F 37.5 °F 32.0 °F 66% 30.43 in 9.0 mi ESE 9.2 mph - N/A   Overcast
8:55 AM 42.8 °F 37.5 °F 32.0 °F 66% 30.44 in 10.0 mi East 9.2 mph - N/A   Overcast
9:15 AM 44.6 °F 39.2 °F 30.2 °F 57% 30.45 in 10.0 mi ESE 10.4 mph - N/A   Overcast
9:35 AM 44.6 °F 39.2 °F 32.0 °F 61% 30.45 in 10.0 mi SE 10.4 mph - N/A   Overcast
9:55 AM 44.6 °F 39.2 °F 32.0 °F 61% 30.45 in 10.0 mi SE 10.4 mph - N/A   Overcast
10:15 AM 44.6 °F 39.2 °F 32.0 °F 61% 30.45 in 10.0 mi SE 10.4 mph - N/A   Overcast
10:35 AM 46.4 °F 41.9 °F 33.8 °F 62% 30.45 in 10.0 mi SE 9.2 mph - N/A   Overcast
10:55 AM 46.4 °F 41.5 °F 33.8 °F 62% 30.44 in 10.0 mi SSE 10.4 mph - N/A   Overcast
11:15 AM 48.2 °F - 33.8 °F 58% 30.43 in 10.0 mi SE 15.0 mph - N/A   Overcast
11:35 AM 50.0 °F - 33.8 °F 54% 30.42 in 10.0 mi SSE 13.8 mph - N/A   Overcast
11:55 AM 50.0 °F - 35.6 °F 58% 30.42 in 10.0 mi SSE 10.4 mph 18.4 mph N/A   Overcast
12:15 PM 50.0 °F - 35.6 °F 58% 30.42 in 10.0 mi SSE 8.1 mph - N/A   Overcast
12:35 PM 53.6 °F - 35.6 °F 51% 30.41 in 10.0 mi SSE 8.1 mph - N/A   Overcast
12:55 PM 53.6 °F - 35.6 °F 51% 30.39 in 10.0 mi SE 10.4 mph - N/A   Partly Cloudy
1:15 PM 55.4 °F - 37.4 °F 51% 30.38 in 10.0 mi SSE 11.5 mph - N/A   Clear
1:35 PM 57.2 °F - 37.4 °F 48% 30.37 in 10.0 mi South 9.2 mph - N/A   Clear
1:55 PM 57.2 °F - 39.2 °F 51% 30.36 in 10.0 mi South 12.7 mph 17.3 mph N/A   Clear
2:15 PM 57.2 °F - 39.2 °F 51% 30.35 in 10.0 mi South 11.5 mph - N/A   Clear
2:35 PM 59.0 °F - 39.2 °F 48% 30.33 in 10.0 mi South 10.4 mph 17.3 mph N/A   Clear
2:55 PM 59.0 °F - 39.2 °F 48% 30.32 in 10.0 mi SSE 11.5 mph - N/A   Clear
3:15 PM 60.8 °F - 39.2 °F 45% 30.31 in 10.0 mi South 11.5 mph 17.3 mph N/A   Clear
3:35 PM 60.8 °F - 41.0 °F 48% 30.30 in 10.0 mi South 11.5 mph - N/A   Clear
3:55 PM 62.6 °F - 41.0 °F 45% 30.29 in 10.0 mi South 10.4 mph - N/A   Clear
4:15 PM 62.6 °F - 41.0 °F 45% 30.28 in 10.0 mi SSE 10.4 mph 16.1 mph N/A   Clear
4:35 PM 62.6 °F - 41.0 °F 45% 30.27 in 10.0 mi South 9.2 mph - N/A   Clear
4:55 PM 62.6 °F - 41.0 °F 45% 30.27 in 10.0 mi South 12.7 mph 18.4 mph N/A   Clear
5:15 PM 59.0 °F - 41.0 °F 51% 30.26 in 10.0 mi SSE 11.5 mph - N/A   Clear
5:35 PM 59.0 °F - 41.0 °F 51% 30.26 in 10.0 mi SSE 8.1 mph - N/A   Clear
5:55 PM 59.0 °F - 41.0 °F 51% 30.25 in 10.0 mi SSE 12.7 mph 17.3 mph N/A   Clear
6:15 PM 59.0 °F - 42.8 °F 55% 30.25 in 10.0 mi SSE 12.7 mph - N/A   Clear
6:35 PM 57.2 °F - 42.8 °F 59% 30.24 in 10.0 mi SSE 10.4 mph - N/A   Clear
6:55 PM 55.4 °F - 42.8 °F 63% 30.24 in 10.0 mi SSE 9.2 mph - N/A   Clear
7:15 PM 55.4 °F - 42.8 °F 63% 30.24 in 10.0 mi SSE 9.2 mph - N/A   Clear
7:35 PM 53.6 °F - 42.8 °F 67% 30.24 in 10.0 mi SSE 9.2 mph - N/A   Clear
7:55 PM 53.6 °F - 41.0 °F 62% 30.23 in 10.0 mi SSE 12.7 mph - N/A   Partly Cloudy
8:15 PM 53.6 °F - 41.0 °F 62% 30.23 in 10.0 mi SSE 13.8 mph - N/A   Clear
8:35 PM 53.6 °F - 41.0 °F 62% 30.23 in 10.0 mi SSE 13.8 mph 19.6 mph N/A   Clear
8:55 PM 53.6 °F - 41.0 °F 62% 30.23 in 10.0 mi SSE 13.8 mph - N/A   Clear
9:15 PM 51.8 °F - 41.0 °F 67% 30.23 in 10.0 mi SSE 11.5 mph 17.3 mph N/A   Partly Cloudy
9:35 PM 50.0 °F - 41.0 °F 71% 30.24 in 10.0 mi SSE 10.4 mph - N/A   Partly Cloudy
9:55 PM 50.0 °F - 41.0 °F 71% 30.24 in 10.0 mi SSE 10.4 mph - N/A   Partly Cloudy
10:15 PM 50.0 °F - 41.0 °F 71% 30.24 in 10.0 mi South 12.7 mph 16.1 mph N/A   Partly Cloudy
10:35 PM 50.0 °F - 41.0 °F 71% 30.24 in 10.0 mi South 12.7 mph - N/A   Scattered Clouds
10:55 PM 50.0 °F - 39.2 °F 66% 30.24 in 10.0 mi South 11.5 mph - N/A   Scattered Clouds
11:15 PM 50.0 °F - 39.2 °F 66% 30.23 in 10.0 mi South 12.7 mph - N/A   Partly Cloudy
11:35 PM 50.0 °F - 41.0 °F 71% 30.23 in 10.0 mi South 12.7 mph - N/A   Scattered Clouds
11:55 PM 50.0 °F - 41.0 °F 71% 30.22 in 10.0 mi South 11.5 mph - N/A   Scattered Clouds